createdAt,value
2023-02-21T00:00:52.226Z,10.34
2023-02-21T00:03:27.156Z,10.33
2023-02-21T00:05:58.586Z,10.29
2023-02-21T00:08:30.090Z,10.27
2023-02-21T00:11:01.119Z,10.28
2023-02-21T00:13:32.584Z,10.25
2023-02-21T00:16:04.339Z,10.24
2023-02-21T00:18:35.804Z,10.20
2023-02-21T00:21:06.732Z,10.19
2023-02-21T00:23:38.031Z,10.18
2023-02-21T00:26:11.609Z,10.17
2023-02-21T00:28:42.819Z,10.18
2023-02-21T00:31:14.131Z,10.18
2023-02-21T00:33:45.307Z,10.17
2023-02-21T00:36:16.204Z,10.17
2023-02-21T00:38:47.496Z,10.16
2023-02-21T00:41:18.568Z,10.16
2023-02-21T00:43:51.636Z,10.16
2023-02-21T00:46:23.344Z,10.18
2023-02-21T00:48:54.657Z,10.17
2023-02-21T00:51:25.849Z,10.16
2023-02-21T00:53:57.282Z,10.15
2023-02-21T00:56:28.705Z,10.12
2023-02-21T00:59:00.106Z,10.11
2023-02-21T01:01:31.347Z,10.09
2023-02-21T01:04:02.885Z,10.08
2023-02-21T01:06:34.040Z,10.06
2023-02-21T01:09:05.938Z,10.03
2023-02-21T01:11:39.424Z,10.02
2023-02-21T01:14:10.732Z,9.98
2023-02-21T01:16:41.639Z,9.94
2023-02-21T01:19:12.845Z,9.97
2023-02-21T01:21:43.770Z,9.95
2023-02-21T01:24:15.001Z,9.92
2023-02-21T01:26:46.087Z,9.92
2023-02-21T01:29:17.450Z,9.96
2023-02-21T01:31:48.400Z,9.93
2023-02-21T01:34:19.616Z,9.92
2023-02-21T01:36:50.703Z,9.91
2023-02-21T01:39:22.145Z,9.89
2023-02-21T01:41:53.156Z,9.90
2023-02-21T01:44:46.018Z,9.87
2023-02-21T01:47:17.106Z,9.85
2023-02-21T01:49:48.928Z,9.87
2023-02-21T01:52:22.405Z,9.84
2023-02-21T01:54:59.143Z,9.83
2023-02-21T01:57:31.501Z,9.80
2023-02-21T02:00:03.372Z,9.81
2023-02-21T02:02:45.500Z,9.76
2023-02-21T02:05:18.379Z,9.72
2023-02-21T02:07:49.857Z,9.70
2023-02-21T02:10:20.869Z,9.68
2023-02-21T02:13:00.228Z,9.65
2023-02-21T02:15:43.567Z,9.60
2023-02-21T02:18:18.375Z,9.57
2023-02-21T02:20:39.675Z,9.56
2023-02-21T02:23:21.506Z,9.56
2023-02-21T02:25:55.863Z,9.53
2023-02-21T02:28:41.554Z,9.53
2023-02-21T02:31:29.752Z,9.50
2023-02-21T02:34:12.062Z,9.47
2023-02-21T02:36:34.275Z,9.50
2023-02-21T02:39:12.086Z,9.54
2023-02-21T02:41:44.222Z,9.51
2023-02-21T02:44:09.571Z,9.55
2023-02-21T02:46:27.118Z,9.55
2023-02-21T02:49:17.340Z,9.58
2023-02-21T02:51:32.665Z,9.50
2023-02-21T02:53:45.251Z,9.54
2023-02-21T02:56:03.478Z,9.57
2023-02-21T02:58:18.384Z,9.57
2023-02-21T03:00:34.621Z,9.59
2023-02-21T03:03:07.514Z,9.59
2023-02-21T03:05:31.836Z,9.56
2023-02-21T03:07:44.400Z,9.59
2023-02-21T03:10:32.433Z,9.59
2023-02-21T03:12:54.430Z,9.55
2023-02-21T03:15:21.786Z,9.56
2023-02-21T03:17:40.227Z,9.59
2023-02-21T03:19:56.468Z,9.58
2023-02-21T03:22:13.730Z,9.62
2023-02-21T03:24:27.798Z,9.64
2023-02-21T03:26:43.634Z,9.68
2023-02-21T03:28:56.872Z,9.64
2023-02-21T03:31:13.264Z,9.68
2023-02-21T03:33:26.525Z,9.68
2023-02-21T03:35:39.099Z,9.71
2023-02-21T03:37:53.544Z,9.70
2023-02-21T03:40:12.602Z,9.69
2023-02-21T03:42:25.173Z,9.70
2023-02-21T03:44:37.732Z,9.75
2023-02-21T03:46:50.336Z,9.75
2023-02-21T03:49:02.968Z,9.70
2023-02-21T03:51:15.824Z,9.70
2023-02-21T03:53:28.493Z,9.71
2023-02-21T03:55:41.043Z,9.73
2023-02-21T03:57:53.628Z,9.76
2023-02-21T04:00:07.050Z,9.72
2023-02-21T04:02:20.116Z,9.72
2023-02-21T04:04:32.813Z,9.69
2023-02-21T04:06:45.388Z,9.70
2023-02-21T04:08:57.981Z,9.75
2023-02-21T04:11:10.558Z,9.73
2023-02-21T04:13:24.490Z,9.76
2023-02-21T04:15:37.100Z,9.73
2023-02-21T04:17:49.627Z,9.73
2023-02-21T04:20:02.170Z,9.75
2023-02-21T04:22:14.700Z,9.77
2023-02-21T04:24:27.323Z,9.77
2023-02-21T04:26:39.985Z,9.77
2023-02-21T04:28:52.854Z,9.78
2023-02-21T04:31:05.451Z,9.80
2023-02-21T04:33:17.956Z,9.84
2023-02-21T04:35:30.646Z,9.82
2023-02-21T04:37:45.047Z,9.82
2023-02-21T04:39:57.584Z,9.85
2023-02-21T04:42:10.149Z,9.84
2023-02-21T04:44:22.793Z,9.85
2023-02-21T04:46:35.436Z,9.89
2023-02-21T04:48:50.289Z,9.89
2023-02-21T04:51:14.711Z,9.87
2023-02-21T04:53:28.129Z,9.86
2023-02-21T04:55:40.700Z,9.83
2023-02-21T04:57:53.225Z,9.83
2023-02-21T05:00:07.406Z,9.81
2023-02-21T05:02:19.941Z,9.76
2023-02-21T05:04:32.626Z,9.76
2023-02-21T05:06:45.208Z,9.71
2023-02-21T05:08:58.656Z,9.69
2023-02-21T05:11:11.204Z,9.63
2023-02-21T05:13:23.856Z,9.59
2023-02-21T05:15:36.427Z,9.59
2023-02-21T05:17:48.977Z,9.59
2023-02-21T05:20:02.155Z,9.56
2023-02-21T05:22:20.216Z,9.55
2023-02-21T05:24:33.111Z,9.55
2023-02-21T05:26:45.567Z,9.55
2023-02-21T05:28:59.491Z,9.54
2023-02-21T05:31:12.121Z,9.58
2023-02-21T05:33:24.974Z,9.60
2023-02-21T05:35:37.488Z,9.65
2023-02-21T05:37:50.076Z,9.69
2023-02-21T05:42:37.387Z,9.74
2023-02-21T05:44:49.988Z,9.76
2023-02-21T05:47:07.078Z,9.81
2023-02-21T05:49:19.802Z,9.85
2023-02-21T05:51:50.944Z,9.84
2023-02-21T05:54:04.987Z,9.85
2023-02-21T05:56:19.528Z,9.84
2023-02-21T05:58:32.208Z,9.87
2023-02-21T06:00:45.073Z,9.87
2023-02-21T06:02:57.868Z,9.87
2023-02-21T06:05:13.057Z,9.85
2023-02-21T06:07:25.599Z,9.85
2023-02-21T06:09:38.391Z,9.84
2023-02-21T06:11:55.966Z,9.85
2023-02-21T06:14:22.397Z,9.85
2023-02-21T06:16:36.660Z,9.81
2023-02-21T06:18:54.255Z,9.76
2023-02-21T06:21:06.856Z,9.75
2023-02-21T06:23:19.390Z,9.73
2023-02-21T06:25:31.911Z,9.70
2023-02-21T06:27:44.442Z,9.71
2023-02-21T06:29:57.089Z,9.69
2023-02-21T06:32:09.677Z,9.69
2023-02-21T06:34:22.263Z,9.67
2023-02-21T06:36:35.662Z,9.69
2023-02-21T06:38:51.267Z,9.72
2023-02-21T06:41:10.014Z,9.71
2023-02-21T06:43:22.778Z,9.72
2023-02-21T06:45:35.319Z,9.72
2023-02-21T06:47:48.008Z,9.75
2023-02-21T06:50:00.570Z,9.77
2023-02-21T06:52:13.786Z,9.82
2023-02-21T06:54:26.494Z,9.82
2023-02-21T06:56:39.577Z,9.87
2023-02-21T06:58:52.182Z,9.90
2023-02-21T07:01:04.823Z,9.94
2023-02-21T07:03:17.349Z,9.95
2023-02-21T07:05:34.448Z,9.94
2023-02-21T07:07:47.062Z,9.96
2023-02-21T07:09:59.910Z,9.98
2023-02-21T07:12:12.662Z,10.02
2023-02-21T07:14:25.213Z,10.09
2023-02-21T07:16:37.791Z,10.12
2023-02-21T07:18:50.523Z,10.13
2023-02-21T07:21:03.135Z,10.19
2023-02-21T07:23:16.182Z,10.25
2023-02-21T07:25:32.865Z,10.27
2023-02-21T07:27:47.621Z,10.27
2023-02-21T07:30:00.150Z,10.27
2023-02-21T07:32:12.806Z,10.24
2023-02-21T07:34:25.360Z,10.19
2023-02-21T07:36:40.172Z,10.15
2023-02-21T07:38:52.966Z,10.13
2023-02-21T07:41:05.594Z,10.13
2023-02-21T07:43:18.100Z,10.11
2023-02-21T07:45:30.701Z,10.14
2023-02-21T07:47:47.860Z,10.14
2023-02-21T07:50:00.736Z,10.13
2023-02-21T07:52:13.341Z,10.16
2023-02-21T07:54:25.912Z,10.19
2023-02-21T07:56:46.367Z,10.19
2023-02-21T07:58:58.919Z,10.18
2023-02-21T08:01:11.519Z,10.22
2023-02-21T08:03:24.088Z,10.27
2023-02-21T08:05:36.748Z,10.28
2023-02-21T08:07:49.300Z,10.29
2023-02-21T08:10:01.913Z,10.32
2023-02-21T08:12:14.421Z,10.33
2023-02-21T08:14:27.151Z,10.37
2023-02-21T08:16:39.778Z,10.40
2023-02-21T08:18:52.559Z,10.35
2023-02-21T08:21:08.954Z,10.31
2023-02-21T08:23:22.180Z,10.33
2023-02-21T08:25:34.703Z,10.34
2023-02-21T08:27:53.365Z,10.37
2023-02-21T08:30:06.792Z,10.34
2023-02-21T08:32:20.270Z,10.28
2023-02-21T08:34:32.896Z,10.25
2023-02-21T08:36:45.438Z,10.28
2023-02-21T08:38:57.960Z,10.30
2023-02-21T08:41:10.668Z,10.38
2023-02-21T08:43:24.190Z,10.43
2023-02-21T08:45:36.762Z,10.50
2023-02-21T08:47:50.412Z,10.65
2023-02-21T08:50:03.588Z,10.78
2023-02-21T08:52:17.820Z,10.80
2023-02-21T08:54:30.694Z,10.73
2023-02-21T08:56:43.265Z,10.59
2023-02-21T08:58:55.898Z,10.54
2023-02-21T09:01:08.508Z,10.47
2023-02-21T09:03:21.045Z,10.45
2023-02-21T09:05:33.574Z,10.42
2023-02-21T09:07:50.188Z,10.40
2023-02-21T09:10:03.540Z,10.36
2023-02-21T09:12:16.179Z,10.42
2023-02-21T09:14:28.676Z,10.45
2023-02-21T09:16:42.828Z,10.52
2023-02-21T09:18:59.071Z,10.51
2023-02-21T09:21:11.826Z,10.60
2023-02-21T09:23:26.490Z,10.71
2023-02-21T09:25:39.061Z,10.81
2023-02-21T09:27:54.394Z,11.00
2023-02-21T09:30:15.193Z,11.34
2023-02-21T09:32:28.809Z,11.49
2023-02-21T09:34:41.682Z,11.61
2023-02-21T09:36:57.454Z,11.65
2023-02-21T09:39:11.095Z,11.67
2023-02-21T09:41:23.733Z,11.67
2023-02-21T09:43:39.335Z,11.85
2023-02-21T09:45:54.950Z,12.08
2023-02-21T09:48:19.779Z,12.13
2023-02-21T09:50:39.811Z,12.35
2023-02-21T09:52:52.408Z,12.40
2023-02-21T09:55:20.762Z,12.42
2023-02-21T09:57:33.315Z,12.60
2023-02-21T09:59:46.283Z,12.86
2023-02-21T10:02:10.748Z,12.96
2023-02-21T10:04:38.231Z,12.97
2023-02-21T10:06:57.475Z,12.87
2023-02-21T10:09:38.384Z,13.06
2023-02-21T10:12:17.936Z,13.37
2023-02-21T10:14:41.941Z,13.68
2023-02-21T10:17:16.973Z,13.74
2023-02-21T10:19:36.174Z,13.62
2023-02-21T10:21:49.638Z,13.49
2023-02-21T10:24:10.502Z,13.30
2023-02-21T10:26:31.027Z,13.08
2023-02-21T10:28:44.092Z,12.88
2023-02-21T10:31:03.282Z,12.72
2023-02-21T10:33:16.339Z,12.68
2023-02-21T10:35:28.887Z,12.66
2023-02-21T10:37:46.917Z,12.58
2023-02-21T10:40:08.113Z,12.51
2023-02-21T10:42:34.410Z,12.48
2023-02-21T10:44:47.117Z,12.40
2023-02-21T10:47:06.802Z,12.31
2023-02-21T10:49:29.291Z,12.08
2023-02-21T10:51:41.906Z,11.88
2023-02-21T10:53:54.470Z,11.73
2023-02-21T10:56:18.284Z,11.65
2023-02-21T10:58:30.889Z,11.63
2023-02-21T11:00:48.653Z,11.54
2023-02-21T11:03:14.414Z,11.47
2023-02-21T11:05:27.287Z,11.40
2023-02-21T11:07:41.752Z,11.43
2023-02-21T11:09:55.716Z,11.60
2023-02-21T11:12:22.195Z,11.74
2023-02-21T11:14:35.160Z,11.86
2023-02-21T11:17:15.508Z,12.09
2023-02-21T11:19:28.136Z,12.41
2023-02-21T11:21:45.048Z,12.60
2023-02-21T11:24:04.622Z,12.92
2023-02-21T11:26:17.265Z,13.04
2023-02-21T11:28:29.925Z,13.14
2023-02-21T11:30:51.099Z,13.27
2023-02-21T11:33:05.996Z,13.28
2023-02-21T11:35:30.791Z,13.14
2023-02-21T11:37:49.585Z,12.96
2023-02-21T11:40:02.684Z,12.75
2023-02-21T11:42:30.924Z,12.66
2023-02-21T11:44:43.621Z,12.53
2023-02-21T11:47:23.122Z,12.43
2023-02-21T11:50:01.677Z,12.30
2023-02-21T11:52:19.495Z,12.17
2023-02-21T11:54:32.598Z,12.14
2023-02-21T11:57:02.260Z,12.09
2023-02-21T11:59:33.220Z,12.06
2023-02-21T12:02:17.878Z,11.96
2023-02-21T12:04:40.325Z,11.90
2023-02-21T12:07:15.352Z,11.88
2023-02-21T12:09:47.482Z,11.83
2023-02-21T12:12:23.259Z,11.87
2023-02-21T12:14:38.605Z,11.88
2023-02-21T12:17:15.074Z,11.93
2023-02-21T12:19:36.937Z,11.96
2023-02-21T12:22:12.076Z,12.02
2023-02-21T12:24:40.694Z,11.98
2023-02-21T12:27:11.687Z,11.94
2023-02-21T12:29:41.187Z,11.81
2023-02-21T12:32:12.741Z,11.75
2023-02-21T12:34:34.473Z,11.69
2023-02-21T12:36:56.069Z,11.75
2023-02-21T12:39:36.073Z,12.07
2023-02-21T12:42:21.339Z,12.28
2023-02-21T12:44:42.030Z,12.36
2023-02-21T12:47:37.328Z,12.51
2023-02-21T12:50:01.682Z,12.46
2023-02-21T12:52:16.137Z,12.41
2023-02-21T12:54:40.993Z,12.34
2023-02-21T12:57:04.959Z,12.40
2023-02-21T12:59:27.257Z,12.49
2023-02-21T13:01:46.338Z,12.52
2023-02-21T13:04:20.923Z,12.48
2023-02-21T13:06:39.242Z,12.42
2023-02-21T13:09:29.454Z,12.45
2023-02-21T13:12:15.952Z,12.51
2023-02-21T13:14:41.415Z,12.53
2023-02-21T13:16:54.165Z,12.46
2023-02-21T13:19:11.364Z,12.51
2023-02-21T13:21:54.746Z,12.60
2023-02-21T13:24:30.956Z,12.76
2023-02-21T13:27:08.423Z,12.78
2023-02-21T13:29:28.307Z,12.74
2023-02-21T13:31:43.312Z,12.89
2023-02-21T13:33:59.781Z,13.10
2023-02-21T13:36:29.531Z,13.27
2023-02-21T13:38:43.243Z,13.37
2023-02-21T13:41:16.796Z,13.38
2023-02-21T13:43:33.139Z,13.50
2023-02-21T13:45:45.660Z,13.46
2023-02-21T13:47:58.371Z,13.30
2023-02-21T13:50:39.201Z,13.15
2023-02-21T13:53:02.990Z,13.01
2023-02-21T13:55:15.827Z,12.96
2023-02-21T13:57:33.179Z,13.07
2023-02-21T13:59:45.769Z,13.25
2023-02-21T14:02:32.783Z,13.28
2023-02-21T14:04:57.669Z,13.09
2023-02-21T14:07:10.340Z,12.96
2023-02-21T14:09:23.029Z,12.86
2023-02-21T14:11:44.291Z,12.80
2023-02-21T14:14:04.196Z,12.83
2023-02-21T14:16:46.105Z,12.81
2023-02-21T14:19:11.056Z,12.61
2023-02-21T14:21:35.615Z,12.52
2023-02-21T14:24:13.167Z,12.48
2023-02-21T14:26:52.057Z,12.39
2023-02-21T14:29:07.382Z,12.30
2023-02-21T14:31:49.720Z,12.28
2023-02-21T14:34:03.637Z,12.28
2023-02-21T14:36:18.674Z,12.31
2023-02-21T14:38:39.068Z,12.28
2023-02-21T14:40:58.919Z,12.24
2023-02-21T14:44:00.037Z,12.19
2023-02-21T14:46:34.590Z,12.09
2023-02-21T14:49:37.250Z,12.03
2023-02-21T14:52:05.675Z,11.91
2023-02-21T14:54:58.555Z,11.90
2023-02-21T14:57:41.091Z,11.81
2023-02-21T15:00:18.960Z,11.77
2023-02-21T15:02:52.021Z,11.74
2023-02-21T15:05:26.494Z,11.73
2023-02-21T15:07:56.054Z,11.72
2023-02-21T15:10:15.001Z,11.71
2023-02-21T15:12:27.929Z,11.70
2023-02-21T15:14:47.714Z,11.69
2023-02-21T15:17:12.080Z,11.65
2023-02-21T15:19:30.328Z,11.64
2023-02-21T15:21:42.868Z,11.64
2023-02-21T15:24:12.808Z,11.64
2023-02-21T15:26:30.104Z,11.67
2023-02-21T15:28:42.765Z,11.73
2023-02-21T15:31:00.266Z,11.81
2023-02-21T15:33:19.464Z,11.82
2023-02-21T15:35:36.470Z,11.83
2023-02-21T15:37:49.152Z,11.80
2023-02-21T15:40:12.102Z,11.81
2023-02-21T15:42:27.560Z,11.86
2023-02-21T15:44:55.376Z,11.94
2023-02-21T15:47:12.758Z,11.99
2023-02-21T15:49:31.727Z,12.02
2023-02-21T15:51:44.658Z,11.95
2023-02-21T15:54:38.307Z,11.89
2023-02-21T15:57:24.902Z,11.77
2023-02-21T15:59:39.040Z,11.65
2023-02-21T16:02:22.508Z,11.56
2023-02-21T16:04:37.258Z,11.39
2023-02-21T16:06:57.707Z,11.33
2023-02-21T16:09:17.011Z,11.28
2023-02-21T16:11:48.137Z,11.26
2023-02-21T16:14:02.461Z,11.16
2023-02-21T16:16:16.370Z,11.12
2023-02-21T16:18:29.113Z,11.07
2023-02-21T16:20:43.599Z,11.02
2023-02-21T16:23:23.180Z,10.97
2023-02-21T16:25:35.900Z,10.85
2023-02-21T16:27:58.025Z,10.79
2023-02-21T16:30:17.098Z,10.71
2023-02-21T16:32:29.745Z,10.58
2023-02-21T16:34:42.559Z,10.51
2023-02-21T16:37:01.920Z,10.44
2023-02-21T16:39:14.426Z,10.37
2023-02-21T16:41:27.520Z,10.31
2023-02-21T16:43:40.102Z,10.27
2023-02-21T16:45:55.753Z,10.25
2023-02-21T16:48:16.442Z,10.20
2023-02-21T16:50:34.927Z,10.15
2023-02-21T16:52:47.594Z,10.11
2023-02-21T16:55:00.184Z,10.10
2023-02-21T16:57:12.880Z,10.08
2023-02-21T16:59:25.509Z,10.07
2023-02-21T17:01:39.052Z,10.05
2023-02-21T17:03:53.812Z,10.04
2023-02-21T17:06:07.026Z,10.04
2023-02-21T17:08:19.785Z,10.03
2023-02-21T17:10:32.807Z,10.00
2023-02-21T17:12:45.388Z,9.99
2023-02-21T17:14:57.932Z,9.99
2023-02-21T17:17:10.478Z,9.97
2023-02-21T17:19:25.396Z,9.94
2023-02-21T17:21:38.484Z,9.91
2023-02-21T17:23:50.991Z,9.89
2023-02-21T17:26:04.224Z,9.85
2023-02-21T17:28:17.087Z,9.81
2023-02-21T17:30:31.276Z,9.75
2023-02-21T17:32:46.885Z,9.70
2023-02-21T17:34:59.788Z,9.64
2023-02-21T17:37:12.388Z,9.61
2023-02-21T17:39:25.717Z,9.55
2023-02-21T17:41:45.574Z,9.47
2023-02-21T17:43:58.191Z,9.39
2023-02-21T17:46:11.857Z,9.38
2023-02-21T17:48:24.409Z,9.39
2023-02-21T17:50:37.164Z,9.41
2023-02-21T17:52:51.474Z,9.42
2023-02-21T17:55:07.890Z,9.41
2023-02-21T17:57:21.776Z,9.40
2023-02-21T17:59:35.555Z,9.36
2023-02-21T18:01:48.223Z,9.32
2023-02-21T18:04:03.570Z,9.28
2023-02-21T18:06:16.758Z,9.22
2023-02-21T18:08:29.329Z,9.21
2023-02-21T18:10:46.079Z,9.23
2023-02-21T18:12:58.644Z,9.23
2023-02-21T18:15:11.366Z,9.24
2023-02-21T18:17:23.879Z,9.25
2023-02-21T18:19:36.732Z,9.24
2023-02-21T18:21:49.483Z,9.23
2023-02-21T18:24:02.277Z,9.20
2023-02-21T18:26:15.752Z,9.20
2023-02-21T18:28:29.673Z,9.22
2023-02-21T18:30:42.273Z,9.24
2023-02-21T18:32:55.273Z,9.22
2023-02-21T18:35:08.021Z,9.23
2023-02-21T18:37:20.577Z,9.24
2023-02-21T18:39:33.346Z,9.22
2023-02-21T18:41:46.172Z,9.19
2023-02-21T18:43:58.758Z,9.17
2023-02-21T18:46:14.441Z,9.15
2023-02-21T18:48:27.349Z,9.12
2023-02-21T18:50:40.030Z,9.12
2023-02-21T18:52:52.571Z,9.11
2023-02-21T18:55:06.088Z,9.09
2023-02-21T18:57:21.602Z,9.08
2023-02-21T18:59:34.828Z,9.09
2023-02-21T19:01:49.306Z,9.09
2023-02-21T19:04:03.555Z,9.05
2023-02-21T19:06:18.301Z,8.95
2023-02-21T19:08:30.783Z,8.87
2023-02-21T19:10:43.381Z,8.80
2023-02-21T19:12:59.389Z,8.74
2023-02-21T19:15:12.123Z,8.66
2023-02-21T19:17:24.887Z,8.65
2023-02-21T19:19:37.795Z,8.60
2023-02-21T19:21:50.368Z,8.58
2023-02-21T19:24:04.186Z,8.55
2023-02-21T19:26:17.489Z,8.53
2023-02-21T19:28:30.050Z,8.51
2023-02-21T19:30:42.918Z,8.49
2023-02-21T19:33:01.868Z,8.49
2023-02-21T19:35:14.385Z,8.48
2023-02-21T19:37:26.945Z,8.47
2023-02-21T19:39:39.546Z,8.47
2023-02-21T19:41:52.068Z,8.47
2023-02-21T19:44:05.354Z,8.46
2023-02-21T19:46:26.529Z,8.47
2023-02-21T19:48:39.064Z,8.46
2023-02-21T19:50:52.021Z,8.45
2023-02-21T19:53:04.785Z,8.45
2023-02-21T19:55:17.360Z,8.44
2023-02-21T19:57:30.001Z,8.40
2023-02-21T19:59:42.828Z,8.39
2023-02-21T20:01:56.186Z,8.38
2023-02-21T20:04:09.183Z,8.37
2023-02-21T20:06:24.849Z,8.36
2023-02-21T20:08:37.434Z,8.35
2023-02-21T20:10:50.037Z,8.34
2023-02-21T20:13:06.570Z,8.34
2023-02-21T20:15:19.391Z,8.35
2023-02-21T20:17:35.177Z,8.37
2023-02-21T20:19:47.718Z,8.37
2023-02-21T20:22:00.438Z,8.39
2023-02-21T20:24:13.220Z,8.40
2023-02-21T20:26:26.546Z,8.40
2023-02-21T20:28:39.579Z,8.37
2023-02-21T20:30:52.315Z,8.33
2023-02-21T20:33:06.768Z,8.28
2023-02-21T20:35:19.402Z,8.24
2023-02-21T20:37:32.595Z,8.22
2023-02-21T20:39:45.280Z,8.22
2023-02-21T20:42:00.952Z,8.23
2023-02-21T20:44:14.613Z,8.23
2023-02-21T20:46:28.973Z,8.22
2023-02-21T20:48:41.775Z,8.20
2023-02-21T20:50:54.296Z,8.19
2023-02-21T20:53:07.155Z,8.19
2023-02-21T20:55:22.200Z,8.18
2023-02-21T20:57:35.167Z,8.15
2023-02-21T20:59:47.888Z,8.13
2023-02-21T21:02:01.555Z,8.12
2023-02-21T21:04:17.491Z,8.10
2023-02-21T21:06:30.404Z,8.09
2023-02-21T21:08:42.986Z,8.09
2023-02-21T21:10:55.639Z,8.08
2023-02-21T21:13:08.340Z,8.06
2023-02-21T21:15:21.710Z,8.04
2023-02-21T21:17:35.585Z,8.03
2023-02-21T21:19:49.269Z,8.03
2023-02-21T21:22:05.060Z,8.03
2023-02-21T21:24:17.760Z,8.01
2023-02-21T21:26:30.337Z,7.97
2023-02-21T21:28:43.361Z,7.95
2023-02-21T21:30:55.972Z,7.93
2023-02-21T21:33:08.556Z,7.91
2023-02-21T21:35:21.196Z,7.89
2023-02-21T21:37:35.119Z,7.87
2023-02-21T21:39:54.810Z,7.87
2023-02-21T21:42:09.536Z,7.87
2023-02-21T21:44:23.372Z,7.89
2023-02-21T21:46:37.942Z,7.90
2023-02-21T21:48:50.528Z,7.90
2023-02-21T21:51:03.713Z,7.88
2023-02-21T21:53:16.739Z,7.87
2023-02-21T21:55:30.172Z,7.85
2023-02-21T21:57:42.806Z,7.86
2023-02-21T21:59:55.473Z,7.87
2023-02-21T22:02:10.242Z,7.88
2023-02-21T22:04:23.967Z,7.89
2023-02-21T22:06:37.553Z,7.88
2023-02-21T22:08:50.107Z,7.89
2023-02-21T22:11:02.682Z,7.90
2023-02-21T22:13:19.919Z,7.89
2023-02-21T22:15:33.544Z,7.87
2023-02-21T22:17:46.666Z,7.88
2023-02-21T22:19:59.256Z,7.89
2023-02-21T22:22:13.665Z,7.90
2023-02-21T22:24:26.265Z,7.91
2023-02-21T22:26:39.698Z,7.93
2023-02-21T22:28:52.763Z,7.91
2023-02-21T22:31:08.682Z,7.91
2023-02-21T22:33:22.488Z,7.89
2023-02-21T22:35:35.187Z,7.88
2023-02-21T22:37:52.689Z,7.88
2023-02-21T22:40:05.555Z,7.86
2023-02-21T22:42:18.475Z,7.84
2023-02-21T22:44:30.984Z,7.84
2023-02-21T22:46:46.806Z,7.82
2023-02-21T22:48:59.432Z,7.79
2023-02-21T22:51:15.169Z,7.79
2023-02-21T22:53:27.974Z,7.77
2023-02-21T22:55:40.488Z,7.76
2023-02-21T22:57:55.305Z,7.73
2023-02-21T23:00:19.104Z,7.71
2023-02-21T23:02:31.824Z,7.70
2023-02-21T23:04:46.589Z,7.70
2023-02-21T23:07:00.281Z,7.69
2023-02-21T23:09:14.276Z,7.69
2023-02-21T23:11:26.894Z,7.66
2023-02-21T23:13:39.518Z,7.65
2023-02-21T23:15:55.904Z,7.63
2023-02-21T23:18:13.136Z,7.60
2023-02-21T23:20:29.647Z,7.58
2023-02-21T23:22:48.655Z,7.58
2023-02-21T23:25:02.019Z,7.55
2023-02-21T23:27:14.763Z,7.54
2023-02-21T23:29:27.472Z,7.52
2023-02-21T23:31:41.049Z,7.50
2023-02-21T23:33:53.801Z,7.45
2023-02-21T23:36:07.473Z,7.40
2023-02-21T23:38:23.004Z,7.34
2023-02-21T23:40:39.242Z,7.29
2023-02-21T23:42:56.924Z,7.23
2023-02-21T23:45:11.256Z,7.17
2023-02-21T23:47:23.995Z,7.11
2023-02-21T23:49:43.994Z,7.07
2023-02-21T23:51:56.650Z,7.03
2023-02-21T23:54:09.984Z,6.99
2023-02-21T23:56:22.884Z,6.95
2023-02-21T23:58:35.527Z,6.90
